createdAt,value
2023-03-30T00:03:05.175Z,90.44
2023-03-30T00:06:05.992Z,90.40
2023-03-30T00:09:06.017Z,90.01
2023-03-30T00:12:09.046Z,89.91
2023-03-30T00:15:12.268Z,89.80
2023-03-30T00:18:16.057Z,89.66
2023-03-30T00:21:17.133Z,89.63
2023-03-30T00:24:19.015Z,89.62
2023-03-30T00:27:20.180Z,89.66
2023-03-30T00:30:24.084Z,89.51
2023-03-30T00:33:37.173Z,89.55
2023-03-30T00:36:52.123Z,89.51
2023-03-30T00:39:53.094Z,89.78
2023-03-30T00:42:58.205Z,89.94
2023-03-30T00:45:58.063Z,90.11
2023-03-30T00:48:59.185Z,90.04
2023-03-30T00:52:04.111Z,90.17
2023-03-30T00:55:06.151Z,90.28
2023-03-30T00:58:07.139Z,90.36
2023-03-30T01:01:08.301Z,90.42
2023-03-30T01:04:13.136Z,90.43
2023-03-30T01:07:14.115Z,90.53
2023-03-30T01:10:15.124Z,90.55
2023-03-30T01:13:16.105Z,90.54
2023-03-30T01:16:31.108Z,90.57
2023-03-30T01:19:51.155Z,90.56
2023-03-30T01:23:09.188Z,90.41
2023-03-30T01:26:18.101Z,90.58
2023-03-30T01:29:38.144Z,90.55
2023-03-30T01:32:49.219Z,90.46
2023-03-30T01:35:55.266Z,90.59
2023-03-30T01:39:07.678Z,90.57
2023-03-30T01:42:10.156Z,90.52
2023-03-30T01:45:15.209Z,90.54
2023-03-30T01:48:26.183Z,90.41
2023-03-30T01:51:28.187Z,90.47
2023-03-30T01:54:30.214Z,90.53
2023-03-30T01:57:31.265Z,90.57
2023-03-30T02:00:32.261Z,90.59
2023-03-30T02:03:38.437Z,90.39
2023-03-30T02:06:47.174Z,90.39
2023-03-30T02:09:48.239Z,90.45
2023-03-30T02:12:48.281Z,90.42
2023-03-30T02:16:04.261Z,90.41
2023-03-30T02:19:05.210Z,90.47
2023-03-30T02:22:09.268Z,90.41
2023-03-30T02:25:09.256Z,90.53
2023-03-30T02:28:10.201Z,90.54
2023-03-30T02:31:10.316Z,90.50
2023-03-30T02:34:10.236Z,90.56
2023-03-30T02:37:14.219Z,90.51
2023-03-30T02:40:23.325Z,90.41
2023-03-30T02:43:39.252Z,90.52
2023-03-30T02:46:54.287Z,90.65
2023-03-30T02:50:26.232Z,90.71
2023-03-30T02:53:31.335Z,90.55
2023-03-30T02:56:35.306Z,90.68
2023-03-30T02:59:35.307Z,90.78
2023-03-30T03:02:36.420Z,90.68
2023-03-30T03:05:50.309Z,90.82
2023-03-30T03:08:56.331Z,90.85
2023-03-30T03:11:58.401Z,90.90
2023-03-30T03:15:17.341Z,90.87
2023-03-30T03:18:29.335Z,90.89
2023-03-30T03:21:29.335Z,90.70
2023-03-30T03:24:29.349Z,90.67
2023-03-30T03:27:39.436Z,90.50
2023-03-30T03:30:44.386Z,90.62
2023-03-30T03:33:47.408Z,90.70
2023-03-30T03:36:51.397Z,90.72
2023-03-30T03:40:01.437Z,90.66
2023-03-30T03:43:01.326Z,90.69
2023-03-30T03:46:02.651Z,90.83
2023-03-30T03:49:02.352Z,90.66
2023-03-30T03:52:02.390Z,90.78
2023-03-30T03:55:02.344Z,90.78
2023-03-30T03:58:08.409Z,90.87
2023-03-30T04:01:12.481Z,90.86
2023-03-30T04:04:14.417Z,90.90
2023-03-30T04:07:14.396Z,90.81
2023-03-30T04:10:14.473Z,90.70
2023-03-30T04:13:49.601Z,90.61
2023-03-30T04:17:17.407Z,90.43
2023-03-30T04:20:50.446Z,90.06
2023-03-30T04:24:11.504Z,89.90
2023-03-30T04:27:31.599Z,89.99
2023-03-30T04:30:53.493Z,87.65
2023-03-30T04:34:28.451Z,84.22
2023-03-30T04:37:36.525Z,80.54
2023-03-30T04:41:01.610Z,75.05
2023-03-30T04:44:26.530Z,69.95
2023-03-30T04:47:46.519Z,66.41
2023-03-30T04:50:49.536Z,63.25
2023-03-30T04:54:12.495Z,58.95
2023-03-30T04:57:19.542Z,56.51
2023-03-30T05:00:45.536Z,54.57
2023-03-30T05:04:02.547Z,52.65
2023-03-30T05:07:20.532Z,50.74
2023-03-30T05:10:53.504Z,48.91
2023-03-30T05:14:14.535Z,48.26
2023-03-30T05:17:35.604Z,47.04
2023-03-30T05:21:09.533Z,46.43
2023-03-30T05:24:18.532Z,45.32
2023-03-30T05:27:40.582Z,43.70
2023-03-30T05:30:46.560Z,43.42
2023-03-30T05:34:14.572Z,43.24
2023-03-30T05:37:18.693Z,42.41
2023-03-30T05:40:31.629Z,41.35
2023-03-30T05:43:42.614Z,40.73
2023-03-30T05:47:15.600Z,39.60
2023-03-30T05:50:38.572Z,38.61
2023-03-30T05:53:47.634Z,38.72
2023-03-30T05:57:05.600Z,38.63
2023-03-30T06:00:35.720Z,37.79
2023-03-30T06:03:41.785Z,37.12
2023-03-30T06:06:42.613Z,37.48
2023-03-30T06:09:44.846Z,36.98
2023-03-30T06:12:51.622Z,36.78
2023-03-30T06:16:03.611Z,36.33
2023-03-30T06:19:03.654Z,36.50
2023-03-30T06:22:04.698Z,35.92
2023-03-30T06:25:28.651Z,35.62
2023-03-30T06:28:33.638Z,35.06
2023-03-30T06:31:34.833Z,34.48
2023-03-30T06:34:52.643Z,34.61
2023-03-30T06:37:53.667Z,33.57
2023-03-30T06:40:53.681Z,32.90
2023-03-30T06:43:55.697Z,32.78
2023-03-30T06:47:00.752Z,32.31
2023-03-30T06:50:01.700Z,31.16
2023-03-30T06:53:27.913Z,31.13
2023-03-30T06:56:27.884Z,30.95
2023-03-30T06:59:46.723Z,31.17
2023-03-30T07:02:47.018Z,30.80
2023-03-30T07:06:10.760Z,29.77
2023-03-30T07:09:15.295Z,29.28
2023-03-30T07:12:18.880Z,29.25
2023-03-30T07:15:20.970Z,28.90
2023-03-30T07:18:24.567Z,28.57
2023-03-30T07:21:40.220Z,28.09
2023-03-30T07:24:43.856Z,27.94
2023-03-30T07:27:46.956Z,27.89
2023-03-30T07:30:47.860Z,27.85
2023-03-30T07:33:48.928Z,27.67
2023-03-30T07:36:50.826Z,27.84
2023-03-30T07:39:57.866Z,27.70
2023-03-30T07:43:00.857Z,27.27
2023-03-30T07:46:02.266Z,27.19
2023-03-30T07:49:06.877Z,26.90
2023-03-30T07:52:16.064Z,26.67
2023-03-30T07:55:20.030Z,26.56
2023-03-30T07:58:29.827Z,26.20
2023-03-30T08:01:31.880Z,26.42
2023-03-30T08:04:39.933Z,26.44
2023-03-30T08:07:42.845Z,26.46
2023-03-30T08:10:48.825Z,26.25
2023-03-30T08:13:51.835Z,26.01
2023-03-30T08:16:53.041Z,25.67
2023-03-30T08:19:52.876Z,25.94
2023-03-30T08:22:53.862Z,25.51
2023-03-30T08:25:58.869Z,25.24
2023-03-30T08:29:00.891Z,25.39
2023-03-30T08:32:00.951Z,25.29
2023-03-30T08:35:01.133Z,24.81
2023-03-30T08:38:01.895Z,25.28
2023-03-30T08:41:03.405Z,25.11
2023-03-30T08:44:10.911Z,24.81
2023-03-30T08:47:10.937Z,24.52
2023-03-30T08:50:29.912Z,24.34
2023-03-30T08:53:30.934Z,24.45
2023-03-30T08:56:34.964Z,24.92
2023-03-30T08:59:47.110Z,24.79
2023-03-30T09:02:49.990Z,24.67
2023-03-30T09:05:52.177Z,24.45
2023-03-30T09:08:54.970Z,24.24
2023-03-30T09:11:55.973Z,24.19
2023-03-30T09:14:58.965Z,23.72
2023-03-30T09:18:03.074Z,23.61
2023-03-30T09:21:04.252Z,23.62
2023-03-30T09:24:07.046Z,23.45
2023-03-30T09:27:25.002Z,23.73
2023-03-30T09:30:22.216Z,24.26
2023-03-30T09:33:26.030Z,24.51
2023-03-30T09:36:32.001Z,23.67
2023-03-30T09:39:33.550Z,23.30
2023-03-30T09:42:44.013Z,23.43
2023-03-30T09:45:44.051Z,22.89
2023-03-30T09:48:51.026Z,22.81
2023-03-30T09:52:22.026Z,22.94
2023-03-30T09:55:34.072Z,23.04
2023-03-30T09:58:42.700Z,22.71
2023-03-30T10:01:48.140Z,22.49
2023-03-30T10:05:06.069Z,22.62
2023-03-30T10:08:03.898Z,22.43
2023-03-30T10:11:12.326Z,22.24
2023-03-30T10:14:14.257Z,22.10
2023-03-30T10:17:16.082Z,22.28
2023-03-30T10:20:30.103Z,21.94
2023-03-30T10:23:41.219Z,21.98
2023-03-30T10:26:45.944Z,21.90
2023-03-30T10:29:47.132Z,21.81
2023-03-30T10:32:49.855Z,22.30
2023-03-30T10:35:52.316Z,22.35
2023-03-30T10:38:53.158Z,22.14
2023-03-30T10:41:53.103Z,21.73
2023-03-30T10:45:01.327Z,22.32
2023-03-30T10:48:17.233Z,22.69
2023-03-30T10:51:20.118Z,22.32
2023-03-30T10:54:35.155Z,22.28
2023-03-30T10:57:39.414Z,22.12
2023-03-30T11:00:46.206Z,21.73
2023-03-30T11:03:48.308Z,21.43
2023-03-30T11:06:50.171Z,21.63
2023-03-30T11:09:51.207Z,21.91
2023-03-30T11:12:53.234Z,22.19
2023-03-30T11:16:15.262Z,21.78
2023-03-30T11:19:17.261Z,20.82
2023-03-30T11:22:26.179Z,20.23
2023-03-30T11:25:33.403Z,20.96
2023-03-30T11:28:39.246Z,21.23
2023-03-30T11:31:40.299Z,20.33
2023-03-30T11:34:48.230Z,20.26
2023-03-30T11:37:51.210Z,20.52
2023-03-30T11:40:58.406Z,20.31
2023-03-30T11:44:02.302Z,19.69
2023-03-30T11:47:23.269Z,19.77
2023-03-30T11:50:25.255Z,20.06
2023-03-30T11:53:31.239Z,20.69
2023-03-30T11:56:34.346Z,20.92
2023-03-30T11:59:50.277Z,20.81
2023-03-30T12:03:02.409Z,21.30
2023-03-30T12:06:04.717Z,21.68
2023-03-30T12:09:13.267Z,21.87
2023-03-30T12:12:34.423Z,21.91
2023-03-30T12:15:37.527Z,22.29
2023-03-30T12:18:51.299Z,22.52
2023-03-30T12:21:52.383Z,23.00
2023-03-30T12:24:54.341Z,23.43
2023-03-30T12:28:13.334Z,23.76
2023-03-30T12:31:15.400Z,24.70
2023-03-30T12:34:21.375Z,25.12
2023-03-30T12:37:40.334Z,25.40
2023-03-30T12:40:40.304Z,24.94
2023-03-30T12:44:26.448Z,24.88
2023-03-30T12:47:44.460Z,24.92
2023-03-30T12:50:50.464Z,25.62
2023-03-30T12:54:05.381Z,26.22
2023-03-30T12:57:11.490Z,26.30
2023-03-30T13:00:14.510Z,26.10
2023-03-30T13:03:31.408Z,26.05
2023-03-30T13:06:34.410Z,25.78
2023-03-30T13:09:38.418Z,26.16
2023-03-30T13:12:48.437Z,26.50
2023-03-30T13:15:52.494Z,26.53
2023-03-30T13:19:01.470Z,26.29
2023-03-30T13:22:07.444Z,26.65
2023-03-30T13:25:34.439Z,27.52
2023-03-30T13:28:48.438Z,27.87
2023-03-30T13:32:11.508Z,28.13
2023-03-30T13:35:13.467Z,28.42
2023-03-30T13:38:20.469Z,28.72
2023-03-30T13:41:21.460Z,28.84
2023-03-30T13:44:36.458Z,29.33
2023-03-30T13:47:42.545Z,29.62
2023-03-30T13:50:42.480Z,30.02
2023-03-30T13:53:44.512Z,29.71
2023-03-30T13:56:44.543Z,30.05
2023-03-30T13:59:45.501Z,30.25
2023-03-30T14:02:45.555Z,30.63
2023-03-30T14:05:48.955Z,31.10
2023-03-30T14:08:50.614Z,31.65
2023-03-30T14:11:58.639Z,32.09
2023-03-30T14:14:59.553Z,32.32
2023-03-30T14:18:00.545Z,32.12
2023-03-30T14:21:01.520Z,32.06
2023-03-30T14:24:04.483Z,32.44
2023-03-30T14:27:04.544Z,32.63
2023-03-30T14:30:04.524Z,32.95
2023-03-30T14:33:19.586Z,32.82
2023-03-30T14:36:19.572Z,32.98
2023-03-30T14:39:19.564Z,33.03
2023-03-30T14:42:25.598Z,33.28
2023-03-30T14:45:28.583Z,33.79
2023-03-30T14:48:34.556Z,34.09
2023-03-30T14:51:48.555Z,34.00
2023-03-30T14:54:58.175Z,33.86
2023-03-30T14:58:06.745Z,34.50
2023-03-30T15:01:10.042Z,34.80
2023-03-30T15:04:11.595Z,35.06
2023-03-30T15:07:11.567Z,35.08
2023-03-30T15:10:20.746Z,35.25
2023-03-30T15:13:23.655Z,35.17
2023-03-30T15:16:25.621Z,35.44
2023-03-30T15:19:29.620Z,35.70
2023-03-30T15:22:41.607Z,36.22
2023-03-30T15:25:45.817Z,36.59
2023-03-30T15:28:48.672Z,36.77
2023-03-30T15:31:49.679Z,36.60
2023-03-30T15:34:50.589Z,36.86
2023-03-30T15:37:50.612Z,36.92
2023-03-30T15:40:51.692Z,37.01
2023-03-30T15:44:04.736Z,36.98
2023-03-30T15:47:05.723Z,37.24
2023-03-30T15:50:06.687Z,37.54
2023-03-30T15:53:11.714Z,37.82
2023-03-30T15:56:12.679Z,37.96
2023-03-30T15:59:13.703Z,38.27
2023-03-30T16:02:14.938Z,38.64
2023-03-30T16:05:14.705Z,38.86
2023-03-30T16:08:14.665Z,39.11
2023-03-30T16:11:14.660Z,39.68
2023-03-30T16:14:14.703Z,39.96
2023-03-30T16:17:18.739Z,40.09
2023-03-30T16:20:25.733Z,40.15
2023-03-30T16:23:25.723Z,40.45
2023-03-30T16:26:26.718Z,40.85
2023-03-30T16:29:35.814Z,41.14
2023-03-30T16:32:35.959Z,41.39
2023-03-30T16:35:36.057Z,41.51
2023-03-30T16:38:36.768Z,41.87
2023-03-30T16:41:37.723Z,41.97
2023-03-30T16:44:37.755Z,42.36
2023-03-30T16:47:37.850Z,42.41
2023-03-30T16:50:50.749Z,42.49
2023-03-30T16:53:55.801Z,42.74
2023-03-30T16:56:59.907Z,43.18
2023-03-30T17:00:00.943Z,43.50
2023-03-30T17:03:01.871Z,43.88
2023-03-30T17:06:05.867Z,44.26
2023-03-30T17:09:08.766Z,44.60
2023-03-30T17:12:08.795Z,44.95
2023-03-30T17:15:11.788Z,45.49
2023-03-30T17:18:11.783Z,46.00
2023-03-30T17:21:18.846Z,46.08
2023-03-30T17:24:18.845Z,46.50
2023-03-30T17:27:18.861Z,47.01
2023-03-30T17:30:22.816Z,47.15
2023-03-30T17:33:23.917Z,47.58
2023-03-30T17:36:34.951Z,47.63
2023-03-30T17:39:35.877Z,47.71
2023-03-30T17:42:36.862Z,47.76
2023-03-30T17:45:38.884Z,47.85
2023-03-30T17:48:40.044Z,47.98
2023-03-30T17:51:39.903Z,48.44
2023-03-30T17:54:42.482Z,48.15
2023-03-30T17:57:43.872Z,48.48
2023-03-30T18:00:43.866Z,48.46
2023-03-30T18:03:45.964Z,48.56
2023-03-30T18:06:46.865Z,48.56
2023-03-30T18:09:46.873Z,48.60
2023-03-30T18:12:46.904Z,48.88
2023-03-30T18:15:46.973Z,49.08
2023-03-30T18:18:46.919Z,49.69
2023-03-30T18:21:46.868Z,50.24
2023-03-30T18:24:49.013Z,50.18
2023-03-30T18:27:49.915Z,50.47
2023-03-30T18:30:50.210Z,50.45
2023-03-30T18:33:52.529Z,50.72
2023-03-30T18:36:53.940Z,50.78
2023-03-30T18:39:53.917Z,51.28
2023-03-30T18:42:54.958Z,51.61
2023-03-30T18:46:00.838Z,51.59
2023-03-30T18:49:02.004Z,51.72
2023-03-30T18:52:02.897Z,51.79
2023-03-30T18:55:03.028Z,52.07
2023-03-30T18:58:03.947Z,52.60
2023-03-30T19:01:07.146Z,52.73
2023-03-30T19:04:08.015Z,53.07
2023-03-30T19:07:07.976Z,53.54
2023-03-30T19:10:07.975Z,53.54
2023-03-30T19:13:09.030Z,53.66
2023-03-30T19:16:11.062Z,53.21
2023-03-30T19:19:15.382Z,53.32
2023-03-30T19:22:21.177Z,53.06
2023-03-30T19:25:20.995Z,52.68
2023-03-30T19:28:25.008Z,52.71
2023-03-30T19:31:26.110Z,52.80
2023-03-30T19:34:26.080Z,52.55
2023-03-30T19:37:27.011Z,52.38
2023-03-30T19:40:27.076Z,52.17
2023-03-30T19:43:27.082Z,52.44
2023-03-30T19:46:27.155Z,51.95
2023-03-30T19:49:27.014Z,51.84
2023-03-30T19:52:27.051Z,51.40
2023-03-30T19:55:28.164Z,51.09
2023-03-30T19:58:28.077Z,50.96
2023-03-30T20:01:28.079Z,51.10
2023-03-30T20:04:29.093Z,51.21
2023-03-30T20:07:30.060Z,51.32
2023-03-30T20:10:31.096Z,51.39
2023-03-30T20:13:31.125Z,51.36
2023-03-30T20:16:32.121Z,51.24
2023-03-30T20:19:32.096Z,51.11
2023-03-30T20:22:32.087Z,50.70
2023-03-30T20:25:33.121Z,50.74
2023-03-30T20:28:41.169Z,50.16
2023-03-30T20:31:41.100Z,49.92
2023-03-30T20:34:41.138Z,49.98
2023-03-30T20:37:43.159Z,50.07
2023-03-30T20:40:43.145Z,50.09
2023-03-30T20:43:56.256Z,50.03
2023-03-30T20:47:05.159Z,50.28
2023-03-30T20:50:08.153Z,50.47
2023-03-30T20:53:08.154Z,50.26
2023-03-30T20:56:09.176Z,49.82
2023-03-30T20:59:10.133Z,49.47
2023-03-30T21:02:11.182Z,49.54
2023-03-30T21:05:11.284Z,49.72
2023-03-30T21:08:15.248Z,49.79
2023-03-30T21:11:16.181Z,50.27
2023-03-30T21:14:21.209Z,50.33
2023-03-30T21:17:21.152Z,50.50
2023-03-30T21:20:21.215Z,50.63
2023-03-30T21:23:22.187Z,50.49
2023-03-30T21:26:24.254Z,50.50
2023-03-30T21:29:24.199Z,50.63
2023-03-30T21:32:24.215Z,51.23
2023-03-30T21:35:25.223Z,51.56
2023-03-30T21:38:26.253Z,51.13
2023-03-30T21:41:28.195Z,50.51
2023-03-30T21:44:28.229Z,49.91
2023-03-30T21:47:32.142Z,50.04
2023-03-30T21:50:32.292Z,50.21
2023-03-30T21:53:33.292Z,50.01
2023-03-30T21:56:33.242Z,50.03
2023-03-30T21:59:34.233Z,50.53
2023-03-30T22:02:34.277Z,50.76
2023-03-30T22:05:35.293Z,50.89
2023-03-30T22:08:36.669Z,50.87
2023-03-30T22:11:37.280Z,51.12
2023-03-30T22:14:38.289Z,51.60
2023-03-30T22:17:47.764Z,52.19
2023-03-30T22:20:52.294Z,52.48
2023-03-30T22:23:52.326Z,52.61
2023-03-30T22:26:53.315Z,53.28
2023-03-30T22:29:53.327Z,54.08
2023-03-30T22:33:01.388Z,54.73
2023-03-30T22:35:56.462Z,54.95
2023-03-30T22:38:56.346Z,55.07
2023-03-30T22:41:57.404Z,55.28
2023-03-30T22:44:57.333Z,55.42
2023-03-30T22:47:58.380Z,55.76
2023-03-30T22:51:00.359Z,56.19
2023-03-30T22:54:02.353Z,56.19
2023-03-30T22:57:03.416Z,56.55
2023-03-30T23:00:04.385Z,56.39
2023-03-30T23:03:07.888Z,56.56
2023-03-30T23:06:09.584Z,56.51
2023-03-30T23:09:11.542Z,56.44
2023-03-30T23:12:12.339Z,57.10
2023-03-30T23:15:12.416Z,57.43
2023-03-30T23:18:12.333Z,57.96
2023-03-30T23:21:12.432Z,58.49
2023-03-30T23:24:12.446Z,59.08
2023-03-30T23:27:13.390Z,59.21
2023-03-30T23:30:18.393Z,59.47
2023-03-30T23:33:25.415Z,59.05
2023-03-30T23:36:27.527Z,58.42
2023-03-30T23:39:20.441Z,57.95
2023-03-30T23:42:22.471Z,57.92
2023-03-30T23:45:22.424Z,57.59
2023-03-30T23:48:22.483Z,56.96
2023-03-30T23:51:23.419Z,57.93
2023-03-30T23:54:24.445Z,58.24
2023-03-30T23:57:24.482Z,58.60
